createdAt,value
2022-08-16T00:01:24.917Z,9.52
2022-08-16T00:03:55.748Z,7.38
2022-08-16T00:06:25.074Z,8.88
2022-08-16T00:08:54.214Z,6.63
2022-08-16T00:11:23.513Z,7.15
2022-08-16T00:13:55.631Z,13.45
2022-08-16T00:17:00.528Z,12.95
2022-08-16T00:19:18.078Z,9.02
2022-08-16T00:21:52.222Z,12.75
2022-08-16T00:24:32.827Z,7.40
2022-08-16T00:27:02.575Z,9.95
2022-08-16T00:29:33.976Z,8.95
2022-08-16T00:32:07.288Z,11.00
2022-08-16T00:34:43.972Z,10.15
2022-08-16T00:37:24.523Z,8.52
2022-08-16T00:39:57.175Z,7.68
2022-08-16T00:42:29.744Z,9.10
2022-08-16T00:45:09.467Z,7.70
2022-08-16T00:47:48.937Z,10.00
2022-08-16T00:50:35.863Z,9.00
2022-08-16T00:53:05.900Z,10.15
2022-08-16T00:55:38.289Z,9.38
2022-08-16T00:58:12.938Z,14.18
2022-08-16T01:00:54.376Z,11.70
2022-08-16T01:03:30.410Z,9.55
2022-08-16T01:06:40.095Z,8.52
2022-08-16T01:09:00.242Z,11.23
2022-08-16T01:11:30.776Z,13.32
2022-08-16T01:14:08.121Z,10.00
2022-08-16T01:16:39.998Z,9.67
2022-08-16T01:19:19.741Z,9.98
2022-08-16T01:21:58.196Z,10.03
2022-08-16T01:24:55.621Z,9.80
2022-08-16T01:27:34.675Z,11.53
2022-08-16T01:30:19.586Z,9.47
2022-08-16T01:33:01.825Z,10.30
2022-08-16T01:35:39.761Z,8.40
2022-08-16T01:38:22.224Z,9.90
2022-08-16T01:41:02.574Z,11.03
2022-08-16T01:43:37.350Z,11.47
2022-08-16T01:46:37.860Z,8.77
2022-08-16T01:49:07.856Z,11.57
2022-08-16T01:51:39.201Z,9.97
2022-08-16T01:54:09.953Z,12.03
2022-08-16T01:56:51.739Z,12.40
2022-08-16T01:59:24.103Z,11.43
2022-08-16T02:01:59.500Z,10.80
2022-08-16T02:04:49.116Z,9.23
2022-08-16T02:07:24.736Z,10.00
2022-08-16T02:09:56.997Z,9.77
2022-08-16T02:12:49.709Z,11.43
2022-08-16T02:15:24.997Z,11.30
2022-08-16T02:17:57.491Z,8.40
2022-08-16T02:20:28.464Z,11.30
2022-08-16T02:22:59.653Z,8.33
2022-08-16T02:25:51.859Z,10.43
2022-08-16T02:28:23.406Z,9.53
2022-08-16T02:30:53.978Z,8.73
2022-08-16T02:33:43.403Z,11.27
2022-08-16T02:36:42.315Z,11.10
2022-08-16T02:39:11.685Z,9.17
2022-08-16T02:41:53.410Z,8.73
2022-08-16T02:44:26.973Z,10.00
2022-08-16T02:46:58.086Z,10.23
2022-08-16T02:49:32.217Z,12.17
2022-08-16T02:52:29.269Z,11.30
2022-08-16T02:55:05.762Z,11.60
2022-08-16T02:57:34.608Z,12.37
2022-08-16T03:00:34.222Z,10.77
2022-08-16T03:03:00.708Z,14.87
2022-08-16T03:05:32.843Z,11.80
2022-08-16T03:08:03.734Z,10.23
2022-08-16T03:10:39.195Z,12.47
2022-08-16T03:13:12.266Z,9.27
2022-08-16T03:15:45.115Z,9.43
2022-08-16T03:18:40.438Z,8.67
2022-08-16T03:21:10.126Z,13.67
2022-08-16T03:23:43.787Z,10.03
2022-08-16T03:26:14.547Z,15.70
2022-08-16T03:28:43.682Z,10.87
2022-08-16T03:31:15.081Z,10.80
2022-08-16T03:33:44.337Z,11.53
2022-08-16T03:36:29.821Z,14.37
2022-08-16T03:39:04.895Z,10.90
2022-08-16T03:41:50.686Z,9.57
2022-08-16T03:44:44.809Z,9.30
2022-08-16T03:47:18.638Z,12.83
2022-08-16T03:49:51.590Z,11.33
2022-08-16T03:52:23.515Z,13.50
2022-08-16T03:54:57.917Z,15.90
2022-08-16T03:57:31.696Z,10.90
2022-08-16T04:00:20.670Z,11.43
2022-08-16T04:03:09.760Z,12.23
2022-08-16T04:05:48.434Z,12.77
2022-08-16T04:08:23.380Z,11.13
2022-08-16T04:10:57.932Z,14.93
2022-08-16T04:13:59.115Z,13.97
2022-08-16T04:16:28.435Z,13.87
2022-08-16T04:19:09.599Z,12.60
2022-08-16T04:21:47.103Z,13.00
2022-08-16T04:24:21.861Z,11.60
2022-08-16T04:26:58.029Z,18.13
2022-08-16T04:29:27.930Z,11.43
2022-08-16T04:32:14.866Z,14.87
2022-08-16T04:34:47.363Z,12.87
2022-08-16T04:37:16.220Z,12.23
2022-08-16T04:39:55.739Z,14.47
2022-08-16T04:42:29.699Z,17.17
2022-08-16T04:45:05.485Z,12.80
2022-08-16T04:47:36.502Z,13.13
2022-08-16T04:50:18.821Z,13.50
2022-08-16T04:53:03.137Z,12.60
2022-08-16T04:55:38.217Z,12.47
2022-08-16T04:58:43.768Z,11.20
2022-08-16T05:00:59.985Z,10.83
2022-08-16T05:03:29.981Z,10.93
2022-08-16T05:06:05.195Z,12.27
2022-08-16T05:08:36.770Z,11.53
2022-08-16T05:11:20.285Z,11.83
2022-08-16T05:13:51.843Z,15.03
2022-08-16T05:16:30.433Z,12.50
2022-08-16T05:19:11.619Z,10.00
2022-08-16T05:22:02.848Z,8.87
2022-08-16T05:24:32.840Z,11.70
2022-08-16T05:27:11.314Z,9.63
2022-08-16T05:30:01.098Z,10.00
2022-08-16T05:32:36.279Z,12.60
2022-08-16T05:35:17.906Z,15.07
2022-08-16T05:38:02.084Z,10.87
2022-08-16T05:40:33.590Z,12.43
2022-08-16T05:43:04.130Z,12.03
2022-08-16T05:45:34.423Z,16.10
2022-08-16T05:48:06.894Z,10.33
2022-08-16T05:50:52.971Z,13.10
2022-08-16T05:53:25.029Z,11.67
2022-08-16T05:56:09.899Z,8.67
2022-08-16T05:58:43.289Z,14.07
2022-08-16T06:01:14.800Z,9.53
2022-08-16T06:03:47.330Z,11.07
2022-08-16T06:06:28.033Z,10.73
2022-08-16T06:09:00.242Z,8.70
2022-08-16T06:11:30.120Z,10.40
2022-08-16T06:14:02.741Z,9.33
2022-08-16T06:16:37.451Z,8.97
2022-08-16T06:19:06.697Z,9.70
2022-08-16T06:21:39.163Z,9.80
2022-08-16T06:24:53.704Z,10.70
2022-08-16T06:26:59.407Z,8.60
2022-08-16T06:29:33.915Z,7.40
2022-08-16T06:32:04.222Z,8.80
2022-08-16T06:34:56.064Z,9.60
2022-08-16T06:37:23.512Z,7.93
2022-08-16T06:39:54.011Z,7.30
2022-08-16T06:42:47.268Z,7.07
2022-08-16T06:45:52.421Z,6.75
2022-08-16T06:48:32.974Z,9.40
2022-08-16T06:51:06.092Z,7.07
2022-08-16T06:53:36.888Z,7.65
2022-08-16T06:56:14.728Z,6.75
2022-08-16T06:59:09.019Z,6.72
2022-08-16T07:01:54.570Z,7.45
2022-08-16T07:04:33.179Z,6.93
2022-08-16T07:07:14.361Z,6.38
2022-08-16T07:09:44.335Z,6.95
2022-08-16T07:12:15.399Z,9.30
2022-08-16T07:14:47.902Z,7.63
2022-08-16T07:17:21.650Z,7.32
2022-08-16T07:20:02.748Z,7.82
2022-08-16T07:22:53.114Z,7.47
2022-08-16T07:25:40.525Z,8.38
2022-08-16T07:28:20.806Z,12.52
2022-08-16T07:30:54.694Z,7.30
2022-08-16T07:33:51.864Z,5.65
2022-08-16T07:36:27.735Z,4.82
2022-08-16T07:38:58.830Z,6.28
2022-08-16T07:41:30.380Z,8.38
2022-08-16T07:44:16.594Z,5.22
2022-08-16T07:46:47.442Z,5.53
2022-08-16T07:49:25.046Z,7.18
2022-08-16T07:51:55.938Z,4.75
2022-08-16T07:54:31.972Z,7.25
2022-08-16T07:57:03.675Z,4.53
2022-08-16T07:59:46.149Z,5.82
2022-08-16T08:02:20.011Z,5.15
2022-08-16T08:04:53.807Z,4.22
2022-08-16T08:07:23.038Z,5.63
2022-08-16T08:09:59.387Z,7.13
2022-08-16T08:12:32.663Z,13.95
2022-08-16T08:15:13.224Z,4.40
2022-08-16T08:17:44.804Z,4.45
2022-08-16T08:20:28.371Z,7.22
2022-08-16T08:23:02.458Z,5.18
2022-08-16T08:25:55.199Z,6.00
2022-08-16T08:28:27.762Z,11.30
2022-08-16T08:31:10.032Z,8.15
2022-08-16T08:33:47.540Z,5.82
2022-08-16T08:36:33.019Z,4.60
2022-08-16T08:39:12.849Z,5.05
2022-08-16T08:41:46.504Z,6.35
2022-08-16T08:44:29.835Z,6.25
2022-08-16T08:47:10.931Z,4.85
2022-08-16T08:49:46.482Z,4.35
2022-08-16T08:52:35.394Z,6.00
2022-08-16T08:55:11.359Z,4.65
2022-08-16T08:57:46.505Z,4.63
2022-08-16T09:00:51.111Z,6.00
2022-08-16T09:03:23.818Z,5.68
2022-08-16T09:05:57.410Z,6.18
2022-08-16T09:08:27.357Z,5.20
2022-08-16T09:11:03.263Z,7.60
2022-08-16T09:13:34.293Z,5.70
2022-08-16T09:16:04.938Z,7.50
2022-08-16T09:18:36.834Z,4.90
2022-08-16T09:21:09.605Z,4.68
2022-08-16T09:23:40.256Z,7.15
2022-08-16T09:26:45.015Z,3.97
2022-08-16T09:29:13.723Z,4.47
2022-08-16T09:31:47.832Z,7.45
2022-08-16T09:34:24.289Z,5.30
2022-08-16T09:36:58.049Z,5.35
2022-08-16T09:39:41.602Z,4.75
2022-08-16T09:42:15.312Z,4.50
2022-08-16T09:45:12.492Z,6.30
2022-08-16T09:47:56.862Z,6.28
2022-08-16T09:50:36.802Z,5.90
2022-08-16T09:53:15.448Z,4.90
2022-08-16T09:55:50.342Z,4.18
2022-08-16T09:58:41.893Z,4.85
2022-08-16T10:01:11.530Z,4.07
2022-08-16T10:04:02.179Z,6.60
2022-08-16T10:06:33.301Z,4.40
2022-08-16T10:09:05.247Z,4.63
2022-08-16T10:11:53.305Z,5.43
2022-08-16T10:14:24.931Z,6.30
2022-08-16T10:17:05.736Z,4.55
2022-08-16T10:19:34.991Z,4.68
2022-08-16T10:22:05.714Z,7.70
2022-08-16T10:24:35.206Z,5.70
2022-08-16T10:27:26.152Z,4.30
2022-08-16T10:30:01.187Z,4.57
2022-08-16T10:32:36.162Z,4.00
2022-08-16T10:35:10.123Z,6.28
2022-08-16T10:37:40.374Z,5.80
2022-08-16T10:40:28.630Z,8.73
2022-08-16T10:43:00.535Z,5.78
2022-08-16T10:45:36.426Z,5.53
2022-08-16T10:48:27.123Z,5.90
2022-08-16T10:50:59.022Z,5.60
2022-08-16T10:53:32.951Z,7.72
2022-08-16T10:56:52.806Z,3.67
2022-08-16T10:59:32.440Z,4.00
2022-08-16T11:02:56.689Z,9.27
2022-08-16T11:10:20.694Z,5.35
2022-08-16T11:12:52.688Z,4.20
2022-08-16T11:15:22.018Z,5.38
2022-08-16T11:20:49.069Z,3.42
2022-08-16T11:23:18.678Z,4.80
2022-08-16T11:26:06.514Z,4.55
2022-08-16T11:29:12.722Z,7.57
2022-08-16T11:31:26.591Z,3.80
2022-08-16T11:33:55.550Z,3.83
2022-08-16T11:36:28.123Z,4.20
2022-08-16T11:38:58.788Z,4.78
2022-08-16T11:41:32.318Z,4.07
2022-08-16T11:44:01.568Z,2.97
2022-08-16T11:46:44.851Z,5.82
2022-08-16T11:49:16.505Z,3.80
2022-08-16T11:51:46.035Z,3.05
2022-08-16T11:54:21.300Z,6.32
2022-08-16T11:56:57.653Z,3.35
2022-08-16T11:59:29.488Z,5.55
2022-08-16T12:02:04.274Z,4.60
2022-08-16T12:04:51.745Z,5.95
2022-08-16T12:07:23.588Z,4.97
2022-08-16T12:09:53.037Z,3.17
2022-08-16T12:12:25.166Z,3.38
2022-08-16T12:14:59.504Z,5.05
2022-08-16T12:17:31.624Z,3.88
2022-08-16T12:20:01.248Z,3.05
2022-08-16T12:22:31.221Z,3.50
2022-08-16T12:25:07.498Z,3.50
2022-08-16T12:27:39.480Z,4.88
2022-08-16T12:30:21.776Z,6.00
2022-08-16T12:32:57.871Z,4.97
2022-08-16T12:35:29.705Z,5.55
2022-08-16T12:38:00.917Z,3.30
2022-08-16T12:40:42.013Z,5.43
2022-08-16T12:43:14.567Z,2.95
2022-08-16T12:45:48.966Z,7.22
2022-08-16T12:48:38.451Z,6.57
2022-08-16T12:51:19.846Z,6.38
2022-08-16T12:53:52.893Z,5.25
2022-08-16T12:56:26.171Z,3.78
2022-08-16T12:59:02.276Z,4.13
2022-08-16T13:01:35.123Z,4.07
2022-08-16T13:04:20.269Z,3.65
2022-08-16T13:06:52.146Z,6.93
2022-08-16T13:09:26.456Z,5.15
2022-08-16T13:12:03.844Z,5.53
2022-08-16T13:14:42.300Z,5.13
2022-08-16T13:17:18.914Z,3.75
2022-08-16T13:20:09.350Z,5.28
2022-08-16T13:22:42.732Z,4.20
2022-08-16T13:25:19.376Z,5.07
2022-08-16T13:28:02.859Z,4.43
2022-08-16T13:30:41.758Z,7.38
2022-08-16T13:33:16.969Z,7.18
2022-08-16T13:35:56.235Z,6.40
2022-08-16T13:38:37.028Z,6.82
2022-08-16T13:41:09.499Z,5.25
2022-08-16T13:43:40.455Z,4.30
2022-08-16T13:46:11.022Z,4.00
2022-08-16T13:48:43.948Z,6.13
2022-08-16T13:51:17.548Z,4.43
2022-08-16T13:53:54.442Z,3.53
2022-08-16T13:56:37.208Z,5.10
2022-08-16T13:59:19.311Z,5.80
2022-08-16T14:01:55.184Z,4.90
2022-08-16T14:04:28.045Z,3.60
2022-08-16T14:06:58.495Z,4.90
2022-08-16T14:09:29.334Z,7.32
2022-08-16T14:12:00.794Z,5.05
2022-08-16T14:14:31.736Z,3.38
2022-08-16T14:17:03.395Z,7.75
2022-08-16T14:19:32.428Z,5.18
2022-08-16T14:22:14.511Z,10.57
2022-08-16T14:24:49.009Z,4.15
2022-08-16T14:27:19.735Z,4.03
2022-08-16T14:29:52.331Z,8.32
2022-08-16T14:32:34.488Z,4.72
2022-08-16T14:35:08.307Z,4.18
2022-08-16T14:37:38.527Z,3.88
2022-08-16T14:40:11.566Z,3.28
2022-08-16T14:42:44.155Z,5.97
2022-08-16T14:45:15.614Z,2.92
2022-08-16T14:47:49.733Z,4.75
2022-08-16T14:50:25.376Z,5.63
2022-08-16T14:52:59.814Z,4.60
2022-08-16T14:55:31.325Z,4.15
2022-08-16T14:58:01.055Z,4.85
2022-08-16T15:00:36.343Z,5.35
2022-08-16T15:03:10.746Z,6.50
2022-08-16T15:05:41.830Z,6.28
2022-08-16T15:08:11.362Z,5.65
2022-08-16T15:10:44.823Z,6.38
2022-08-16T15:13:16.419Z,3.42
2022-08-16T15:15:51.248Z,5.97
2022-08-16T15:18:31.725Z,5.78
2022-08-16T15:21:02.238Z,4.30
2022-08-16T15:23:33.564Z,4.18
2022-08-16T15:26:04.190Z,3.80
2022-08-16T15:28:38.254Z,5.45
2022-08-16T15:31:13.198Z,4.28
2022-08-16T15:33:51.060Z,8.63
2022-08-16T15:36:25.856Z,6.45
2022-08-16T15:39:07.071Z,7.93
2022-08-16T15:42:06.781Z,4.05
2022-08-16T15:44:51.265Z,6.50
2022-08-16T15:47:26.207Z,6.00
2022-08-16T15:49:57.991Z,3.63
2022-08-16T15:52:30.553Z,5.82
2022-08-16T15:55:13.331Z,5.55
2022-08-16T15:57:51.364Z,5.68
2022-08-16T16:00:21.242Z,5.22
2022-08-16T16:02:50.685Z,6.80
2022-08-16T16:05:22.056Z,7.47
2022-08-16T16:07:56.842Z,6.13
2022-08-16T16:10:40.421Z,6.85
2022-08-16T16:13:11.712Z,4.88
2022-08-16T16:15:44.556Z,5.18
2022-08-16T16:18:14.961Z,6.38
2022-08-16T16:20:55.022Z,5.20
2022-08-16T16:23:28.364Z,5.65
2022-08-16T16:25:59.821Z,6.97
2022-08-16T16:29:05.822Z,4.45
2022-08-16T16:31:26.934Z,6.22
2022-08-16T16:33:58.907Z,9.05
2022-08-16T16:36:33.493Z,5.63
2022-08-16T16:39:06.094Z,7.40
2022-08-16T16:41:38.064Z,4.45
2022-08-16T16:44:07.085Z,5.85
2022-08-16T16:46:41.337Z,4.90
2022-08-16T16:49:14.871Z,6.25
2022-08-16T16:51:49.777Z,6.85
2022-08-16T16:54:27.389Z,6.57
2022-08-16T16:56:58.000Z,6.47
2022-08-16T16:59:28.463Z,6.57
2022-08-16T17:02:39.335Z,6.32
2022-08-16T17:04:48.256Z,14.70
2022-08-16T17:07:24.055Z,7.40
2022-08-16T17:09:54.105Z,6.30
2022-08-16T17:12:25.479Z,4.10
2022-08-16T17:15:14.916Z,7.10
2022-08-16T17:17:59.811Z,8.02
2022-08-16T17:20:30.492Z,5.07
2022-08-16T17:23:00.996Z,5.22
2022-08-16T17:25:36.282Z,6.57
2022-08-16T17:28:59.674Z,8.98
2022-08-16T17:30:56.158Z,7.40
2022-08-16T17:33:25.373Z,6.28
2022-08-16T17:35:55.412Z,5.43
2022-08-16T17:38:38.617Z,6.18
2022-08-16T17:41:15.697Z,5.85
2022-08-16T17:43:46.087Z,4.90
2022-08-16T17:46:41.469Z,5.45
2022-08-16T17:49:06.437Z,5.45
2022-08-16T17:51:35.350Z,6.75
2022-08-16T17:54:06.865Z,7.80
2022-08-16T17:56:35.639Z,6.82
2022-08-16T17:59:04.670Z,6.13
2022-08-16T18:01:33.573Z,5.75
2022-08-16T18:04:09.257Z,7.22
2022-08-16T18:06:39.607Z,6.93
2022-08-16T18:09:11.102Z,8.55
2022-08-16T18:11:44.666Z,8.75
2022-08-16T18:14:15.141Z,5.60
2022-08-16T18:16:46.253Z,5.70
2022-08-16T18:19:15.247Z,5.10
2022-08-16T18:22:01.956Z,7.43
2022-08-16T18:24:32.148Z,8.07
2022-08-16T18:27:24.710Z,10.10
2022-08-16T18:29:52.134Z,6.18
2022-08-16T18:32:23.074Z,6.88
2022-08-16T18:34:54.531Z,4.65
2022-08-16T18:37:24.005Z,6.65
2022-08-16T18:39:54.297Z,6.80
2022-08-16T18:42:25.450Z,8.35
2022-08-16T18:44:54.207Z,7.03
2022-08-16T18:47:22.972Z,9.30
2022-08-16T18:49:51.699Z,6.95
2022-08-16T18:52:25.237Z,6.28
2022-08-16T18:55:01.571Z,5.28
2022-08-16T18:57:32.179Z,5.97
2022-08-16T19:00:00.914Z,7.13
2022-08-16T19:02:42.922Z,8.15
2022-08-16T19:05:25.520Z,6.65
2022-08-16T19:07:54.314Z,5.35
2022-08-16T19:10:24.686Z,5.35
2022-08-16T19:12:53.612Z,7.57
2022-08-16T19:15:26.380Z,7.63
2022-08-16T19:17:55.497Z,10.38
2022-08-16T19:20:27.661Z,6.13
2022-08-16T19:23:09.798Z,7.88
2022-08-16T19:25:47.008Z,5.18
2022-08-16T19:28:50.950Z,8.65
2022-08-16T19:31:15.594Z,6.20
2022-08-16T19:33:53.328Z,10.32
2022-08-16T19:36:31.327Z,7.95
2022-08-16T19:39:05.427Z,7.32
2022-08-16T19:41:37.973Z,7.22
2022-08-16T19:44:08.447Z,8.68
2022-08-16T19:46:38.322Z,7.30
2022-08-16T19:49:07.581Z,6.13
2022-08-16T19:51:37.623Z,5.40
2022-08-16T19:54:06.924Z,7.53
2022-08-16T19:56:37.237Z,6.03
2022-08-16T19:59:22.352Z,5.65
2022-08-16T20:01:54.937Z,4.90
2022-08-16T20:04:25.944Z,5.28
2022-08-16T20:06:56.126Z,8.23
2022-08-16T20:09:26.491Z,7.53
2022-08-16T20:11:56.937Z,5.35
2022-08-16T20:14:26.717Z,7.25
2022-08-16T20:17:00.940Z,4.82
2022-08-16T20:19:40.369Z,6.57
2022-08-16T20:22:51.944Z,6.50
2022-08-16T20:25:28.465Z,17.77
2022-08-16T20:28:00.996Z,10.23
2022-08-16T20:30:29.918Z,10.02
2022-08-16T20:32:58.678Z,6.47
2022-08-16T20:35:29.734Z,6.85
2022-08-16T20:38:00.047Z,6.13
2022-08-16T20:40:34.264Z,4.53
2022-08-16T20:43:09.941Z,5.00
2022-08-16T20:45:40.915Z,6.97
2022-08-16T20:48:09.789Z,5.35
2022-08-16T20:50:39.277Z,6.53
2022-08-16T20:53:09.176Z,11.23
2022-08-16T20:55:41.769Z,7.15
2022-08-16T20:58:12.313Z,5.70
2022-08-16T21:00:41.404Z,6.80
2022-08-16T21:03:12.295Z,5.60
2022-08-16T21:05:41.409Z,6.70
2022-08-16T21:08:29.520Z,6.05
2022-08-16T21:11:02.243Z,8.55
2022-08-16T21:13:34.500Z,9.15
2022-08-16T21:16:05.464Z,5.97
2022-08-16T21:18:34.228Z,7.55
2022-08-16T21:21:03.066Z,6.00
2022-08-16T21:23:31.821Z,4.45
2022-08-16T21:26:00.616Z,4.50
2022-08-16T21:28:38.721Z,5.82
2022-08-16T21:31:11.211Z,8.35
2022-08-16T21:33:40.146Z,4.65
2022-08-16T21:36:09.840Z,5.13
2022-08-16T21:38:38.589Z,6.60
2022-08-16T21:41:10.476Z,6.57
2022-08-16T21:43:41.099Z,5.07
2022-08-16T21:46:10.854Z,6.30
2022-08-16T21:48:40.840Z,5.25
2022-08-16T21:51:13.372Z,5.43
2022-08-16T21:53:43.041Z,6.88
2022-08-16T21:56:16.711Z,5.25
2022-08-16T21:58:52.863Z,5.80
2022-08-16T22:01:23.935Z,4.80
2022-08-16T22:04:09.655Z,6.28
2022-08-16T22:06:44.210Z,6.07
2022-08-16T22:09:16.827Z,8.45
2022-08-16T22:11:46.361Z,5.35
2022-08-16T22:14:16.602Z,8.10
2022-08-16T22:16:45.296Z,5.60
2022-08-16T22:19:14.349Z,7.63
2022-08-16T22:21:43.174Z,5.82
2022-08-16T22:24:12.052Z,6.10
2022-08-16T22:26:43.373Z,5.55
2022-08-16T22:29:16.012Z,5.88
2022-08-16T22:31:46.032Z,6.80
2022-08-16T22:34:15.307Z,5.55
2022-08-16T22:36:44.083Z,5.68
2022-08-16T22:39:15.366Z,5.05
2022-08-16T22:41:45.946Z,8.60
2022-08-16T22:44:16.731Z,4.78
2022-08-16T22:46:46.139Z,6.53
2022-08-16T22:49:16.451Z,5.00
2022-08-16T22:51:45.284Z,4.75
2022-08-16T22:54:43.925Z,5.35
2022-08-16T22:57:03.117Z,6.82
2022-08-16T22:59:34.292Z,5.18
2022-08-16T23:02:07.783Z,4.38
2022-08-16T23:04:37.206Z,4.90
2022-08-16T23:07:06.720Z,10.55
2022-08-16T23:09:35.541Z,5.10
2022-08-16T23:12:06.233Z,5.47
2022-08-16T23:14:36.499Z,5.03
2022-08-16T23:17:05.306Z,6.72
2022-08-16T23:19:34.099Z,5.88
2022-08-16T23:22:02.853Z,4.60
2022-08-16T23:24:37.161Z,8.25
2022-08-16T23:27:21.516Z,4.80
2022-08-16T23:29:52.735Z,5.93
2022-08-16T23:32:21.442Z,6.07
2022-08-16T23:34:50.230Z,5.03
2022-08-16T23:37:21.979Z,5.68
2022-08-16T23:39:50.822Z,5.00
2022-08-16T23:42:53.253Z,5.40
2022-08-16T23:45:13.961Z,5.53
2022-08-16T23:47:42.733Z,6.05
2022-08-16T23:50:12.151Z,6.93
2022-08-16T23:52:55.927Z,5.75
2022-08-16T23:55:25.485Z,8.27
2022-08-16T23:57:54.722Z,5.10
